ストックホルム/アーランダ の空港の天気 - METARとTAF

ストックホルム・アーランダ空港 ( ESSA / ARN ) - スウェーデン ストックホルム
飛行場実況気象(Metar)
観測時間11/30 18:20 CET (11/30 17:20 UTC)
風向・風速東 3m/s
視程800m
天気現象散在した霧
なし
気温-2℃
湿度100%
気圧1033hPa
METARESSA 301720Z 08005KT 0800 R01L/1600D R19R/P2000N R01R/P2000N R19L/P2000N BCFG NSC M02/M02 Q1033 TEMPO 1200 BCFG
過去の天気等 Google飛行場航空写真 Wunderground天気予報

過去48時間のMETAR

飛行場予報(TAF)
発表時間: 11/30 18:30 CET (11/30 17:30 UTC)
予報対象時間: 30日19時 CET ~ 1日19時 CET
風向・風速東 2m/s
視程8000m
全天の4割程度の雲 雲底高度 1070m
30日19時 CET から 確率 40% で
視程250m
天気現象
全天を覆う雲 鉛直視程 60m
30日21時 CET から 確率 40% で
視程3000m
天気現象もや
全天の8割程度の雲 雲底高度 240m
1日10時 CET から 確率 40% で
全天の8割程度の雲 雲底高度 300m
TAF ESSA 301730Z 3018/0118 08003KT 8000 SCT035
PROB40 3018/3020 0250 FG VV002
PROB40 3020/0109 3000 BR BKN008
PROB40 0109/0112 BKN010